sensor_id;sensor_type;location;lat;lon;timestamp;temperature;humidity
26541;DHT22;14206;50.202;10.948;2023-04-06T00:00:47;-0.70;86.30
26541;DHT22;14206;50.202;10.948;2023-04-06T00:03:14;-0.70;86.40
26541;DHT22;14206;50.202;10.948;2023-04-06T00:05:42;-0.70;86.20
26541;DHT22;14206;50.202;10.948;2023-04-06T00:08:08;-0.70;85.80
26541;DHT22;14206;50.202;10.948;2023-04-06T00:10:35;-0.80;86.20
26541;DHT22;14206;50.202;10.948;2023-04-06T00:13:02;-0.80;86.30
26541;DHT22;14206;50.202;10.948;2023-04-06T00:15:29;-0.80;86.00
26541;DHT22;14206;50.202;10.948;2023-04-06T00:17:56;-0.80;86.20
26541;DHT22;14206;50.202;10.948;2023-04-06T00:20:23;-0.80;86.50
26541;DHT22;14206;50.202;10.948;2023-04-06T00:22:50;-0.80;86.60
26541;DHT22;14206;50.202;10.948;2023-04-06T00:25:17;-0.80;86.60
26541;DHT22;14206;50.202;10.948;2023-04-06T00:27:44;-0.90;86.90
26541;DHT22;14206;50.202;10.948;2023-04-06T00:30:11;-0.90;86.60
26541;DHT22;14206;50.202;10.948;2023-04-06T00:32:38;-0.90;86.30
26541;DHT22;14206;50.202;10.948;2023-04-06T00:35:06;-0.90;86.20
26541;DHT22;14206;50.202;10.948;2023-04-06T00:37:32;-1.00;86.30
26541;DHT22;14206;50.202;10.948;2023-04-06T00:40:00;-1.00;86.30
26541;DHT22;14206;50.202;10.948;2023-04-06T00:42:27;-1.00;86.40
26541;DHT22;14206;50.202;10.948;2023-04-06T00:44:56;-1.00;86.50
26541;DHT22;14206;50.202;10.948;2023-04-06T00:47:24;-1.00;86.50
26541;DHT22;14206;50.202;10.948;2023-04-06T00:49:54;-1.00;86.40
26541;DHT22;14206;50.202;10.948;2023-04-06T00:52:21;-1.00;86.40
26541;DHT22;14206;50.202;10.948;2023-04-06T00:54:49;-1.00;86.80
26541;DHT22;14206;50.202;10.948;2023-04-06T00:57:19;-1.00;86.90
26541;DHT22;14206;50.202;10.948;2023-04-06T00:59:52;-1.00;86.70
26541;DHT22;14206;50.202;10.948;2023-04-06T01:02:19;-1.10;86.80
26541;DHT22;14206;50.202;10.948;2023-04-06T01:04:50;-1.00;86.80
26541;DHT22;14206;50.202;10.948;2023-04-06T01:07:32;-1.10;86.60
26541;DHT22;14206;50.202;10.948;2023-04-06T01:10:08;-1.10;86.80
26541;DHT22;14206;50.202;10.948;2023-04-06T01:12:36;-1.10;86.90
26541;DHT22;14206;50.202;10.948;2023-04-06T01:15:10;-1.10;86.80
26541;DHT22;14206;50.202;10.948;2023-04-06T01:17:40;-1.10;86.70
26541;DHT22;14206;50.202;10.948;2023-04-06T01:20:13;-1.10;86.80
26541;DHT22;14206;50.202;10.948;2023-04-06T01:22:40;-1.10;87.00
26541;DHT22;14206;50.202;10.948;2023-04-06T01:25:07;-1.10;86.90
26541;DHT22;14206;50.202;10.948;2023-04-06T01:28:04;-1.10;86.80
26541;DHT22;14206;50.202;10.948;2023-04-06T01:31:07;-1.20;86.80
26541;DHT22;14206;50.202;10.948;2023-04-06T01:33:44;-1.20;86.90
26541;DHT22;14206;50.202;10.948;2023-04-06T01:36:15;-1.20;87.10
26541;DHT22;14206;50.202;10.948;2023-04-06T01:38:45;-1.30;87.10
26541;DHT22;14206;50.202;10.948;2023-04-06T01:41:15;-1.30;87.60
26541;DHT22;14206;50.202;10.948;2023-04-06T01:43:49;-1.30;88.10
26541;DHT22;14206;50.202;10.948;2023-04-06T01:46:24;-1.30;88.00
26541;DHT22;14206;50.202;10.948;2023-04-06T01:48:51;-1.30;88.00
26541;DHT22;14206;50.202;10.948;2023-04-06T01:51:39;-1.30;87.80
26541;DHT22;14206;50.202;10.948;2023-04-06T01:54:10;-1.40;87.70
26541;DHT22;14206;50.202;10.948;2023-04-06T01:56:55;-1.40;88.20
26541;DHT22;14206;50.202;10.948;2023-04-06T01:59:52;-1.40;87.80
26541;DHT22;14206;50.202;10.948;2023-04-06T02:02:24;-1.40;87.70
26541;DHT22;14206;50.202;10.948;2023-04-06T02:04:58;-1.40;87.80
26541;DHT22;14206;50.202;10.948;2023-04-06T02:07:25;-1.50;87.80
26541;DHT22;14206;50.202;10.948;2023-04-06T02:09:54;-1.50;87.80
26541;DHT22;14206;50.202;10.948;2023-04-06T02:12:33;-1.50;88.10
26541;DHT22;14206;50.202;10.948;2023-04-06T02:15:00;-1.50;88.40
26541;DHT22;14206;50.202;10.948;2023-04-06T02:17:27;-1.50;88.40
26541;DHT22;14206;50.202;10.948;2023-04-06T02:19:54;-1.50;88.40
26541;DHT22;14206;50.202;10.948;2023-04-06T02:22:20;-1.50;88.40
26541;DHT22;14206;50.202;10.948;2023-04-06T02:24:47;-1.50;88.20
26541;DHT22;14206;50.202;10.948;2023-04-06T02:27:14;-1.50;88.30
26541;DHT22;14206;50.202;10.948;2023-04-06T02:29:45;-1.50;88.20
26541;DHT22;14206;50.202;10.948;2023-04-06T02:32:14;-1.50;88.20
26541;DHT22;14206;50.202;10.948;2023-04-06T02:34:41;-1.50;88.30
26541;DHT22;14206;50.202;10.948;2023-04-06T02:37:08;-1.50;88.30
26541;DHT22;14206;50.202;10.948;2023-04-06T02:39:35;-1.50;88.20
26541;DHT22;14206;50.202;10.948;2023-04-06T02:42:07;-1.60;88.40
26541;DHT22;14206;50.202;10.948;2023-04-06T02:44:35;-1.60;88.70
26541;DHT22;14206;50.202;10.948;2023-04-06T02:47:02;-1.60;88.60
26541;DHT22;14206;50.202;10.948;2023-04-06T02:49:29;-1.60;88.50
26541;DHT22;14206;50.202;10.948;2023-04-06T02:51:58;-1.60;88.50
26541;DHT22;14206;50.202;10.948;2023-04-06T02:54:29;-1.60;88.50
26541;DHT22;14206;50.202;10.948;2023-04-06T02:56:56;-1.60;89.10
26541;DHT22;14206;50.202;10.948;2023-04-06T02:59:30;-1.60;89.30
26541;DHT22;14206;50.202;10.948;2023-04-06T03:02:05;-1.60;89.10
26541;DHT22;14206;50.202;10.948;2023-04-06T03:04:33;-1.60;89.50
26541;DHT22;14206;50.202;10.948;2023-04-06T03:07:02;-1.50;89.50
26541;DHT22;14206;50.202;10.948;2023-04-06T03:09:37;-1.50;89.60
26541;DHT22;14206;50.202;10.948;2023-04-06T03:12:04;-1.50;90.20
26541;DHT22;14206;50.202;10.948;2023-04-06T03:14:43;-1.50;90.40
26541;DHT22;14206;50.202;10.948;2023-04-06T03:17:10;-1.40;90.60
26541;DHT22;14206;50.202;10.948;2023-04-06T03:19:37;-1.40;90.50
26541;DHT22;14206;50.202;10.948;2023-04-06T03:22:05;-1.30;90.30
26541;DHT22;14206;50.202;10.948;2023-04-06T03:24:32;-1.30;90.00
26541;DHT22;14206;50.202;10.948;2023-04-06T03:26:59;-1.20;89.90
26541;DHT22;14206;50.202;10.948;2023-04-06T03:29:26;-1.20;89.70
26541;DHT22;14206;50.202;10.948;2023-04-06T03:31:53;-1.20;89.60
26541;DHT22;14206;50.202;10.948;2023-04-06T03:34:31;-1.20;89.70
26541;DHT22;14206;50.202;10.948;2023-04-06T03:36:58;-1.20;89.80
26541;DHT22;14206;50.202;10.948;2023-04-06T03:39:37;-1.20;89.70
26541;DHT22;14206;50.202;10.948;2023-04-06T03:42:04;-1.20;89.60
26541;DHT22;14206;50.202;10.948;2023-04-06T03:44:34;-1.10;89.20
26541;DHT22;14206;50.202;10.948;2023-04-06T03:47:01;-1.20;88.40
26541;DHT22;14206;50.202;10.948;2023-04-06T03:49:29;-1.20;88.10
26541;DHT22;14206;50.202;10.948;2023-04-06T03:51:57;-1.20;88.00
26541;DHT22;14206;50.202;10.948;2023-04-06T03:54:24;-1.30;87.80
26541;DHT22;14206;50.202;10.948;2023-04-06T03:56:51;-1.30;87.60
26541;DHT22;14206;50.202;10.948;2023-04-06T03:59:18;-1.40;88.10
26541;DHT22;14206;50.202;10.948;2023-04-06T04:01:44;-1.50;88.10
26541;DHT22;14206;50.202;10.948;2023-04-06T04:04:12;-1.50;88.60
26541;DHT22;14206;50.202;10.948;2023-04-06T04:06:40;-1.60;89.40
26541;DHT22;14206;50.202;10.948;2023-04-06T04:09:07;-1.60;89.50
26541;DHT22;14206;50.202;10.948;2023-04-06T04:11:34;-1.60;89.40
26541;DHT22;14206;50.202;10.948;2023-04-06T04:14:01;-1.60;89.70
26541;DHT22;14206;50.202;10.948;2023-04-06T04:16:28;-1.60;90.20
26541;DHT22;14206;50.202;10.948;2023-04-06T04:18:56;-1.60;90.20
26541;DHT22;14206;50.202;10.948;2023-04-06T04:21:24;-1.60;90.40
26541;DHT22;14206;50.202;10.948;2023-04-06T04:23:52;-1.60;90.50
26541;DHT22;14206;50.202;10.948;2023-04-06T04:26:19;-1.50;90.60
26541;DHT22;14206;50.202;10.948;2023-04-06T04:28:46;-1.50;90.60
26541;DHT22;14206;50.202;10.948;2023-04-06T04:31:14;-1.40;90.60
26541;DHT22;14206;50.202;10.948;2023-04-06T04:33:41;-1.40;90.70
26541;DHT22;14206;50.202;10.948;2023-04-06T04:36:13;-1.40;90.80
26541;DHT22;14206;50.202;10.948;2023-04-06T04:38:42;-1.40;90.40
26541;DHT22;14206;50.202;10.948;2023-04-06T04:41:10;-1.30;90.40
26541;DHT22;14206;50.202;10.948;2023-04-06T04:43:40;-1.30;90.00
26541;DHT22;14206;50.202;10.948;2023-04-06T04:46:07;-1.30;89.80
26541;DHT22;14206;50.202;10.948;2023-04-06T04:48:38;-1.30;89.70
26541;DHT22;14206;50.202;10.948;2023-04-06T04:51:06;-1.20;90.00
26541;DHT22;14206;50.202;10.948;2023-04-06T04:53:46;-1.20;89.90
26541;DHT22;14206;50.202;10.948;2023-04-06T04:56:19;-1.20;89.60
26541;DHT22;14206;50.202;10.948;2023-04-06T04:58:50;-1.20;89.70
26541;DHT22;14206;50.202;10.948;2023-04-06T05:01:17;-1.10;89.30
26541;DHT22;14206;50.202;10.948;2023-04-06T05:03:45;-1.10;89.00
26541;DHT22;14206;50.202;10.948;2023-04-06T05:06:14;-1.00;88.70
26541;DHT22;14206;50.202;10.948;2023-04-06T05:08:42;-1.00;88.70
26541;DHT22;14206;50.202;10.948;2023-04-06T05:11:09;-1.00;88.40
26541;DHT22;14206;50.202;10.948;2023-04-06T05:13:41;-0.90;88.40
26541;DHT22;14206;50.202;10.948;2023-04-06T05:16:14;-0.90;88.60
26541;DHT22;14206;50.202;10.948;2023-04-06T05:18:41;-0.90;88.10
26541;DHT22;14206;50.202;10.948;2023-04-06T05:21:11;-0.90;88.50
26541;DHT22;14206;50.202;10.948;2023-04-06T05:23:53;-0.80;88.40
26541;DHT22;14206;50.202;10.948;2023-04-06T05:26:21;-0.80;88.30
26541;DHT22;14206;50.202;10.948;2023-04-06T05:28:51;-0.80;88.60
26541;DHT22;14206;50.202;10.948;2023-04-06T05:31:18;-0.70;88.40
26541;DHT22;14206;50.202;10.948;2023-04-06T05:33:48;-0.60;88.40
26541;DHT22;14206;50.202;10.948;2023-04-06T05:36:22;-0.50;88.30
26541;DHT22;14206;50.202;10.948;2023-04-06T05:38:50;-0.40;88.00
26541;DHT22;14206;50.202;10.948;2023-04-06T05:41:32;-0.30;87.90
26541;DHT22;14206;50.202;10.948;2023-04-06T05:44:00;-0.20;87.80
26541;DHT22;14206;50.202;10.948;2023-04-06T05:46:27;-0.10;87.50
26541;DHT22;14206;50.202;10.948;2023-04-06T05:48:56;0.00;87.20
26541;DHT22;14206;50.202;10.948;2023-04-06T05:51:27;0.10;86.90
26541;DHT22;14206;50.202;10.948;2023-04-06T05:53:54;0.30;86.70
26541;DHT22;14206;50.202;10.948;2023-04-06T05:56:21;0.40;86.30
26541;DHT22;14206;50.202;10.948;2023-04-06T05:58:48;0.40;86.30
26541;DHT22;14206;50.202;10.948;2023-04-06T06:01:22;0.50;86.20
26541;DHT22;14206;50.202;10.948;2023-04-06T06:03:49;0.60;85.90
26541;DHT22;14206;50.202;10.948;2023-04-06T06:06:15;0.70;86.00
26541;DHT22;14206;50.202;10.948;2023-04-06T06:09:09;0.80;85.60
26541;DHT22;14206;50.202;10.948;2023-04-06T06:11:41;0.90;85.30
26541;DHT22;14206;50.202;10.948;2023-04-06T06:14:11;1.00;84.80
26541;DHT22;14206;50.202;10.948;2023-04-06T06:16:39;1.10;84.70
26541;DHT22;14206;50.202;10.948;2023-04-06T06:19:08;1.20;84.90
26541;DHT22;14206;50.202;10.948;2023-04-06T06:21:36;1.30;85.20
26541;DHT22;14206;50.202;10.948;2023-04-06T06:24:05;1.40;85.20
26541;DHT22;14206;50.202;10.948;2023-04-06T06:26:32;1.40;85.10
26541;DHT22;14206;50.202;10.948;2023-04-06T06:29:03;1.50;84.50
26541;DHT22;14206;50.202;10.948;2023-04-06T06:31:34;1.70;84.40
26541;DHT22;14206;50.202;10.948;2023-04-06T06:34:02;1.80;83.60
26541;DHT22;14206;50.202;10.948;2023-04-06T06:36:35;1.90;83.10
26541;DHT22;14206;50.202;10.948;2023-04-06T06:39:06;2.00;82.50
26541;DHT22;14206;50.202;10.948;2023-04-06T06:41:33;2.10;80.20
26541;DHT22;14206;50.202;10.948;2023-04-06T06:44:00;2.20;80.00
26541;DHT22;14206;50.202;10.948;2023-04-06T06:46:28;2.20;79.70
26541;DHT22;14206;50.202;10.948;2023-04-06T06:48:55;2.30;79.60
26541;DHT22;14206;50.202;10.948;2023-04-06T06:51:22;2.40;79.80
26541;DHT22;14206;50.202;10.948;2023-04-06T06:53:48;2.50;80.00
26541;DHT22;14206;50.202;10.948;2023-04-06T06:56:15;2.70;79.60
26541;DHT22;14206;50.202;10.948;2023-04-06T06:58:42;2.80;79.70
26541;DHT22;14206;50.202;10.948;2023-04-06T07:01:09;3.00;78.60
26541;DHT22;14206;50.202;10.948;2023-04-06T07:03:37;3.10;78.70
26541;DHT22;14206;50.202;10.948;2023-04-06T07:06:04;3.20;78.00
26541;DHT22;14206;50.202;10.948;2023-04-06T07:08:31;3.30;78.30
26541;DHT22;14206;50.202;10.948;2023-04-06T07:10:58;3.50;77.60
26541;DHT22;14206;50.202;10.948;2023-04-06T07:13:25;3.60;77.10
26541;DHT22;14206;50.202;10.948;2023-04-06T07:15:56;3.70;75.60
26541;DHT22;14206;50.202;10.948;2023-04-06T07:18:23;3.80;75.70
26541;DHT22;14206;50.202;10.948;2023-04-06T07:20:50;3.90;75.50
26541;DHT22;14206;50.202;10.948;2023-04-06T07:23:17;4.10;75.30
26541;DHT22;14206;50.202;10.948;2023-04-06T07:25:44;4.20;74.30
26541;DHT22;14206;50.202;10.948;2023-04-06T07:28:11;4.30;74.50
26541;DHT22;14206;50.202;10.948;2023-04-06T07:30:39;4.50;75.20
26541;DHT22;14206;50.202;10.948;2023-04-06T07:33:08;4.70;74.60
26541;DHT22;14206;50.202;10.948;2023-04-06T07:35:36;4.90;73.90
26541;DHT22;14206;50.202;10.948;2023-04-06T07:38:04;5.00;72.70
26541;DHT22;14206;50.202;10.948;2023-04-06T07:40:32;5.20;73.10
26541;DHT22;14206;50.202;10.948;2023-04-06T07:42:59;5.40;72.30
26541;DHT22;14206;50.202;10.948;2023-04-06T07:45:26;5.60;71.30
26541;DHT22;14206;50.202;10.948;2023-04-06T07:47:54;5.90;70.60
26541;DHT22;14206;50.202;10.948;2023-04-06T07:50:23;7.40;71.20
26541;DHT22;14206;50.202;10.948;2023-04-06T07:52:51;10.20;67.40
26541;DHT22;14206;50.202;10.948;2023-04-06T07:55:18;12.90;59.90
26541;DHT22;14206;50.202;10.948;2023-04-06T07:57:45;15.30;56.30
26541;DHT22;14206;50.202;10.948;2023-04-06T08:00:13;17.30;51.60
26541;DHT22;14206;50.202;10.948;2023-04-06T08:02:40;19.10;46.60
26541;DHT22;14206;50.202;10.948;2023-04-06T08:05:07;20.30;44.90
26541;DHT22;14206;50.202;10.948;2023-04-06T08:07:34;21.40;44.00
26541;DHT22;14206;50.202;10.948;2023-04-06T08:10:03;22.80;41.50
26541;DHT22;14206;50.202;10.948;2023-04-06T08:12:32;23.80;38.90
26541;DHT22;14206;50.202;10.948;2023-04-06T08:14:59;24.40;38.50
26541;DHT22;14206;50.202;10.948;2023-04-06T08:17:26;24.80;37.80
26541;DHT22;14206;50.202;10.948;2023-04-06T08:19:57;25.40;36.60
26541;DHT22;14206;50.202;10.948;2023-04-06T08:22:23;26.10;36.30
26541;DHT22;14206;50.202;10.948;2023-04-06T08:24:50;26.90;34.50
26541;DHT22;14206;50.202;10.948;2023-04-06T08:27:19;27.50;34.20
26541;DHT22;14206;50.202;10.948;2023-04-06T08:29:46;27.80;33.20
26541;DHT22;14206;50.202;10.948;2023-04-06T08:32:13;28.20;31.80
26541;DHT22;14206;50.202;10.948;2023-04-06T08:34:40;28.20;32.00
26541;DHT22;14206;50.202;10.948;2023-04-06T08:37:07;28.50;32.00
26541;DHT22;14206;50.202;10.948;2023-04-06T08:39:34;28.60;30.60
26541;DHT22;14206;50.202;10.948;2023-04-06T08:42:01;28.40;30.70
26541;DHT22;14206;50.202;10.948;2023-04-06T08:44:31;28.40;30.80
26541;DHT22;14206;50.202;10.948;2023-04-06T08:47:00;28.30;30.50
26541;DHT22;14206;50.202;10.948;2023-04-06T08:49:27;28.30;31.20
26541;DHT22;14206;50.202;10.948;2023-04-06T08:51:55;28.50;31.20
26541;DHT22;14206;50.202;10.948;2023-04-06T08:54:22;28.60;30.90
26541;DHT22;14206;50.202;10.948;2023-04-06T08:56:49;28.60;29.70
26541;DHT22;14206;50.202;10.948;2023-04-06T08:59:16;28.30;28.90
26541;DHT22;14206;50.202;10.948;2023-04-06T09:01:44;28.50;29.10
26541;DHT22;14206;50.202;10.948;2023-04-06T09:04:12;28.60;29.80
26541;DHT22;14206;50.202;10.948;2023-04-06T09:06:41;28.40;30.00
26541;DHT22;14206;50.202;10.948;2023-04-06T09:09:08;27.90;29.60
26541;DHT22;14206;50.202;10.948;2023-04-06T09:11:48;27.30;29.70
26541;DHT22;14206;50.202;10.948;2023-04-06T09:14:16;26.70;32.00
26541;DHT22;14206;50.202;10.948;2023-04-06T09:16:45;26.00;31.40
26541;DHT22;14206;50.202;10.948;2023-04-06T09:19:12;25.90;32.80
26541;DHT22;14206;50.202;10.948;2023-04-06T09:21:39;26.30;31.00
26541;DHT22;14206;50.202;10.948;2023-04-06T09:24:07;26.70;31.60
26541;DHT22;14206;50.202;10.948;2023-04-06T09:26:45;26.90;29.70
26541;DHT22;14206;50.202;10.948;2023-04-06T09:29:23;26.90;32.60
26541;DHT22;14206;50.202;10.948;2023-04-06T09:31:51;26.90;31.20
26541;DHT22;14206;50.202;10.948;2023-04-06T09:34:22;26.80;30.20
26541;DHT22;14206;50.202;10.948;2023-04-06T09:36:50;26.70;30.50
26541;DHT22;14206;50.202;10.948;2023-04-06T09:39:21;26.90;29.40
26541;DHT22;14206;50.202;10.948;2023-04-06T09:41:54;26.90;29.40
26541;DHT22;14206;50.202;10.948;2023-04-06T09:44:22;27.10;29.50
26541;DHT22;14206;50.202;10.948;2023-04-06T09:46:51;27.60;30.10
26541;DHT22;14206;50.202;10.948;2023-04-06T09:49:27;28.20;28.90
26541;DHT22;14206;50.202;10.948;2023-04-06T09:52:01;28.40;28.70
26541;DHT22;14206;50.202;10.948;2023-04-06T09:54:30;28.50;29.30
26541;DHT22;14206;50.202;10.948;2023-04-06T09:57:25;28.30;29.10
26541;DHT22;14206;50.202;10.948;2023-04-06T10:00:08;28.40;27.90
26541;DHT22;14206;50.202;10.948;2023-04-06T10:05:22;29.10;30.10
26541;DHT22;14206;50.202;10.948;2023-04-06T10:07:55;29.30;28.30
26541;DHT22;14206;50.202;10.948;2023-04-06T10:10:28;29.40;27.90
26541;DHT22;14206;50.202;10.948;2023-04-06T10:12:55;29.20;27.90
26541;DHT22;14206;50.202;10.948;2023-04-06T10:15:22;29.00;28.90
26541;DHT22;14206;50.202;10.948;2023-04-06T10:17:51;28.70;29.10
26541;DHT22;14206;50.202;10.948;2023-04-06T10:20:23;28.70;27.10
26541;DHT22;14206;50.202;10.948;2023-04-06T10:25:30;28.50;26.10
26541;DHT22;14206;50.202;10.948;2023-04-06T10:28:08;28.20;26.30
26541;DHT22;14206;50.202;10.948;2023-04-06T10:30:41;27.90;28.00
26541;DHT22;14206;50.202;10.948;2023-04-06T10:33:17;27.80;27.90
26541;DHT22;14206;50.202;10.948;2023-04-06T10:35:45;27.80;27.60
26541;DHT22;14206;50.202;10.948;2023-04-06T10:38:12;28.20;28.70
26541;DHT22;14206;50.202;10.948;2023-04-06T10:40:46;28.40;27.70
26541;DHT22;14206;50.202;10.948;2023-04-06T10:43:20;28.70;28.10
26541;DHT22;14206;50.202;10.948;2023-04-06T10:45:57;29.20;27.70
26541;DHT22;14206;50.202;10.948;2023-04-06T10:48:40;29.00;27.50
26541;DHT22;14206;50.202;10.948;2023-04-06T10:51:15;28.80;26.60
26541;DHT22;14206;50.202;10.948;2023-04-06T10:53:47;28.20;27.10
26541;DHT22;14206;50.202;10.948;2023-04-06T10:56:16;27.80;27.50
26541;DHT22;14206;50.202;10.948;2023-04-06T10:58:47;27.80;27.90
26541;DHT22;14206;50.202;10.948;2023-04-06T11:01:20;28.50;26.70
26541;DHT22;14206;50.202;10.948;2023-04-06T11:03:52;28.90;27.40
26541;DHT22;14206;50.202;10.948;2023-04-06T11:06:24;28.70;26.10
26541;DHT22;14206;50.202;10.948;2023-04-06T11:08:52;28.50;25.00
26541;DHT22;14206;50.202;10.948;2023-04-06T11:11:21;28.10;26.30
26541;DHT22;14206;50.202;10.948;2023-04-06T11:13:50;28.10;26.10
26541;DHT22;14206;50.202;10.948;2023-04-06T11:16:18;27.90;25.60
26541;DHT22;14206;50.202;10.948;2023-04-06T11:18:58;27.70;25.70
26541;DHT22;14206;50.202;10.948;2023-04-06T11:21:39;27.70;25.30
26541;DHT22;14206;50.202;10.948;2023-04-06T11:26:47;27.70;26.70
26541;DHT22;14206;50.202;10.948;2023-04-06T11:29:19;27.90;26.00
26541;DHT22;14206;50.202;10.948;2023-04-06T11:34:22;27.00;26.20
26541;DHT22;14206;50.202;10.948;2023-04-06T11:36:55;26.70;26.50
26541;DHT22;14206;50.202;10.948;2023-04-06T11:39:25;27.10;27.20
26541;DHT22;14206;50.202;10.948;2023-04-06T11:41:54;27.40;26.20
26541;DHT22;14206;50.202;10.948;2023-04-06T11:44:39;27.70;26.10
26541;DHT22;14206;50.202;10.948;2023-04-06T11:47:09;27.30;25.00
26541;DHT22;14206;50.202;10.948;2023-04-06T11:49:40;26.80;26.10
26541;DHT22;14206;50.202;10.948;2023-04-06T11:52:23;26.40;26.20
26541;DHT22;14206;50.202;10.948;2023-04-06T11:54:51;26.10;26.00
26541;DHT22;14206;50.202;10.948;2023-04-06T11:57:19;25.90;26.90
26541;DHT22;14206;50.202;10.948;2023-04-06T11:59:47;25.90;28.90
26541;DHT22;14206;50.202;10.948;2023-04-06T12:02:14;25.50;27.90
26541;DHT22;14206;50.202;10.948;2023-04-06T12:04:40;25.00;29.00
26541;DHT22;14206;50.202;10.948;2023-04-06T12:07:08;24.90;29.40
26541;DHT22;14206;50.202;10.948;2023-04-06T12:09:34;25.10;30.80
26541;DHT22;14206;50.202;10.948;2023-04-06T12:12:03;24.90;29.30
26541;DHT22;14206;50.202;10.948;2023-04-06T12:14:30;24.60;30.20
26541;DHT22;14206;50.202;10.948;2023-04-06T12:16:58;24.20;30.30
26541;DHT22;14206;50.202;10.948;2023-04-06T12:19:25;23.40;29.80
26541;DHT22;14206;50.202;10.948;2023-04-06T12:21:53;22.90;31.30
26541;DHT22;14206;50.202;10.948;2023-04-06T12:24:21;22.50;32.20
26541;DHT22;14206;50.202;10.948;2023-04-06T12:26:47;22.50;31.30
26541;DHT22;14206;50.202;10.948;2023-04-06T12:29:19;22.10;30.90
26541;DHT22;14206;50.202;10.948;2023-04-06T12:31:46;21.40;31.00
26541;DHT22;14206;50.202;10.948;2023-04-06T12:34:13;21.00;33.40
26541;DHT22;14206;50.202;10.948;2023-04-06T12:36:40;20.80;32.00
26541;DHT22;14206;50.202;10.948;2023-04-06T12:39:07;20.50;33.60
26541;DHT22;14206;50.202;10.948;2023-04-06T12:41:34;20.50;35.40
26541;DHT22;14206;50.202;10.948;2023-04-06T12:44:02;20.70;36.10
26541;DHT22;14206;50.202;10.948;2023-04-06T12:46:29;20.90;33.50
26541;DHT22;14206;50.202;10.948;2023-04-06T12:48:57;20.80;33.20
26541;DHT22;14206;50.202;10.948;2023-04-06T12:51:27;20.60;34.00
26541;DHT22;14206;50.202;10.948;2023-04-06T12:53:55;20.40;34.60
26541;DHT22;14206;50.202;10.948;2023-04-06T12:56:22;19.90;34.90
26541;DHT22;14206;50.202;10.948;2023-04-06T12:58:50;19.40;34.20
26541;DHT22;14206;50.202;10.948;2023-04-06T13:01:18;19.10;35.40
26541;DHT22;14206;50.202;10.948;2023-04-06T13:03:45;18.80;36.50
26541;DHT22;14206;50.202;10.948;2023-04-06T13:06:12;18.50;38.20
26541;DHT22;14206;50.202;10.948;2023-04-06T13:08:39;18.30;36.40
26541;DHT22;14206;50.202;10.948;2023-04-06T13:11:07;17.80;36.60
26541;DHT22;14206;50.202;10.948;2023-04-06T13:13:37;17.40;37.10
26541;DHT22;14206;50.202;10.948;2023-04-06T13:16:07;17.00;37.90
26541;DHT22;14206;50.202;10.948;2023-04-06T13:18:34;16.90;39.20
26541;DHT22;14206;50.202;10.948;2023-04-06T13:21:05;16.60;40.20
26541;DHT22;14206;50.202;10.948;2023-04-06T13:23:33;16.50;39.70
26541;DHT22;14206;50.202;10.948;2023-04-06T13:26:05;16.40;39.60
26541;DHT22;14206;50.202;10.948;2023-04-06T13:28:33;16.50;38.80
26541;DHT22;14206;50.202;10.948;2023-04-06T13:31:02;16.50;38.10
26541;DHT22;14206;50.202;10.948;2023-04-06T13:33:30;16.70;38.90
26541;DHT22;14206;50.202;10.948;2023-04-06T13:35:58;16.80;38.40
26541;DHT22;14206;50.202;10.948;2023-04-06T13:38:25;16.50;38.70
26541;DHT22;14206;50.202;10.948;2023-04-06T13:40:52;16.30;39.90
26541;DHT22;14206;50.202;10.948;2023-04-06T13:43:19;16.10;42.40
26541;DHT22;14206;50.202;10.948;2023-04-06T13:45:50;15.90;40.60
26541;DHT22;14206;50.202;10.948;2023-04-06T13:48:18;15.60;40.80
26541;DHT22;14206;50.202;10.948;2023-04-06T13:50:45;15.30;42.70
26541;DHT22;14206;50.202;10.948;2023-04-06T13:53:13;15.10;41.30
26541;DHT22;14206;50.202;10.948;2023-04-06T13:55:40;14.80;41.30
26541;DHT22;14206;50.202;10.948;2023-04-06T13:58:07;14.70;43.00
26541;DHT22;14206;50.202;10.948;2023-04-06T14:00:34;14.50;42.00
26541;DHT22;14206;50.202;10.948;2023-04-06T14:03:02;14.20;43.60
26541;DHT22;14206;50.202;10.948;2023-04-06T14:05:32;14.00;42.70
26541;DHT22;14206;50.202;10.948;2023-04-06T14:07:59;13.90;42.80
26541;DHT22;14206;50.202;10.948;2023-04-06T14:10:26;13.70;42.90
26541;DHT22;14206;50.202;10.948;2023-04-06T14:12:54;13.60;43.80
26541;DHT22;14206;50.202;10.948;2023-04-06T14:15:22;13.50;43.30
26541;DHT22;14206;50.202;10.948;2023-04-06T14:17:49;13.40;45.10
26541;DHT22;14206;50.202;10.948;2023-04-06T14:20:17;13.20;44.50
26541;DHT22;14206;50.202;10.948;2023-04-06T14:22:44;13.10;45.00
26541;DHT22;14206;50.202;10.948;2023-04-06T14:25:11;13.00;45.00
26541;DHT22;14206;50.202;10.948;2023-04-06T14:27:38;13.00;44.40
26541;DHT22;14206;50.202;10.948;2023-04-06T14:30:05;12.90;45.70
26541;DHT22;14206;50.202;10.948;2023-04-06T14:32:32;12.80;45.80
26541;DHT22;14206;50.202;10.948;2023-04-06T14:34:59;12.80;45.80
26541;DHT22;14206;50.202;10.948;2023-04-06T14:37:26;12.90;47.00
26541;DHT22;14206;50.202;10.948;2023-04-06T14:39:53;12.90;46.00
26541;DHT22;14206;50.202;10.948;2023-04-06T14:42:20;13.00;45.40
26541;DHT22;14206;50.202;10.948;2023-04-06T14:44:47;13.00;46.30
26541;DHT22;14206;50.202;10.948;2023-04-06T14:47:15;13.00;47.40
26541;DHT22;14206;50.202;10.948;2023-04-06T14:49:51;13.10;47.30
26541;DHT22;14206;50.202;10.948;2023-04-06T14:52:18;13.10;48.00
26541;DHT22;14206;50.202;10.948;2023-04-06T14:54:45;13.10;47.20
26541;DHT22;14206;50.202;10.948;2023-04-06T14:57:11;13.10;46.10
26541;DHT22;14206;50.202;10.948;2023-04-06T14:59:38;13.00;46.00
26541;DHT22;14206;50.202;10.948;2023-04-06T15:02:06;13.00;47.20
26541;DHT22;14206;50.202;10.948;2023-04-06T15:04:34;13.00;46.10
26541;DHT22;14206;50.202;10.948;2023-04-06T15:07:02;13.00;47.50
26541;DHT22;14206;50.202;10.948;2023-04-06T15:09:29;13.00;47.70
26541;DHT22;14206;50.202;10.948;2023-04-06T15:11:56;13.00;47.70
26541;DHT22;14206;50.202;10.948;2023-04-06T15:14:23;13.00;48.20
26541;DHT22;14206;50.202;10.948;2023-04-06T15:16:49;13.00;46.20
26541;DHT22;14206;50.202;10.948;2023-04-06T15:19:16;12.90;45.40
26541;DHT22;14206;50.202;10.948;2023-04-06T15:21:43;12.80;46.40
26541;DHT22;14206;50.202;10.948;2023-04-06T15:24:10;12.80;46.70
26541;DHT22;14206;50.202;10.948;2023-04-06T15:26:37;12.80;45.30
26541;DHT22;14206;50.202;10.948;2023-04-06T15:29:04;12.70;45.80
26541;DHT22;14206;50.202;10.948;2023-04-06T15:31:31;12.60;46.70
26541;DHT22;14206;50.202;10.948;2023-04-06T15:34:05;12.50;46.90
26541;DHT22;14206;50.202;10.948;2023-04-06T15:36:35;12.50;46.70
26541;DHT22;14206;50.202;10.948;2023-04-06T15:39:03;12.50;46.20
26541;DHT22;14206;50.202;10.948;2023-04-06T15:41:30;12.60;48.20